createdAt,value
2018-12-04T00:00:56.849Z,100.00
2018-12-04T00:03:24.586Z,100.00
2018-12-04T00:05:53.202Z,100.00
2018-12-04T00:08:20.825Z,100.00
2018-12-04T00:10:48.595Z,100.00
2018-12-04T00:13:16.393Z,100.00
2018-12-04T00:15:45.026Z,100.00
2018-12-04T00:18:13.385Z,100.00
2018-12-04T00:20:41.048Z,100.00
2018-12-04T00:23:08.794Z,100.00
2018-12-04T00:25:36.583Z,100.00
2018-12-04T00:28:04.199Z,100.00
2018-12-04T00:30:32.638Z,100.00
2018-12-04T00:33:00.258Z,100.00
2018-12-04T00:35:28.079Z,100.00
2018-12-04T00:37:56.701Z,100.00
2018-12-04T00:40:25.210Z,100.00
2018-12-04T00:42:52.898Z,100.00
2018-12-04T00:45:20.586Z,100.00
2018-12-04T00:47:48.377Z,100.00
2018-12-04T00:50:16.890Z,100.00
2018-12-04T00:52:45.111Z,100.00
2018-12-04T00:55:13.600Z,100.00
2018-12-04T00:57:43.194Z,100.00
2018-12-04T01:00:11.944Z,100.00
2018-12-04T01:02:39.743Z,100.00
2018-12-04T01:05:07.454Z,99.87
2018-12-04T01:07:36.053Z,99.74
2018-12-04T01:10:05.578Z,100.00
2018-12-04T01:12:33.356Z,100.00
2018-12-04T01:15:01.828Z,99.89
2018-12-04T01:17:30.368Z,99.82
2018-12-04T01:19:58.017Z,100.00
2018-12-04T01:22:26.543Z,99.82
2018-12-04T01:24:55.051Z,100.00
2018-12-04T01:27:23.761Z,99.32
2018-12-04T01:29:51.376Z,99.43
2018-12-04T01:32:18.967Z,99.45
2018-12-04T01:34:47.555Z,98.76
2018-12-04T01:37:16.132Z,98.96
2018-12-04T01:39:45.541Z,98.25
2018-12-04T01:42:14.850Z,98.16
2018-12-04T01:44:42.643Z,98.15
2018-12-04T01:47:10.328Z,98.36
2018-12-04T01:49:38.035Z,98.56
2018-12-04T01:52:06.443Z,98.40
2018-12-04T01:54:34.117Z,98.76
2018-12-04T01:57:02.841Z,98.06
2018-12-04T01:59:31.449Z,98.42
2018-12-04T02:01:59.915Z,98.37
2018-12-04T02:04:27.600Z,98.31
2018-12-04T02:06:55.247Z,98.60
2018-12-04T02:09:23.869Z,98.48
2018-12-04T02:11:52.575Z,97.90
2018-12-04T02:14:20.355Z,98.17
2018-12-04T02:16:49.066Z,98.23
2018-12-04T02:19:17.780Z,98.27
2018-12-04T02:21:46.398Z,98.54
2018-12-04T02:24:14.911Z,98.24
2018-12-04T02:26:43.967Z,98.63
2018-12-04T02:29:12.581Z,98.29
2018-12-04T02:31:41.135Z,98.31
2018-12-04T02:34:09.571Z,98.47
2018-12-04T02:36:37.257Z,98.72
2018-12-04T02:39:06.803Z,97.97
2018-12-04T02:41:35.336Z,98.25
2018-12-04T02:44:03.158Z,98.19
2018-12-04T02:46:32.122Z,98.17
2018-12-04T02:48:59.780Z,97.93
2018-12-04T02:51:28.509Z,97.62
2018-12-04T02:53:56.334Z,98.01
2018-12-04T02:56:24.029Z,98.01
2018-12-04T02:58:51.730Z,98.26
2018-12-04T03:01:20.227Z,97.97
2018-12-04T03:03:48.014Z,98.01
2018-12-04T03:06:16.737Z,97.71
2018-12-04T03:08:45.264Z,98.16
2018-12-04T03:11:14.325Z,97.97
2018-12-04T03:13:43.712Z,97.49
2018-12-04T03:16:11.496Z,97.59
2018-12-04T03:18:40.084Z,97.28
2018-12-04T03:21:07.773Z,97.07
2018-12-04T03:23:36.318Z,96.77
2018-12-04T03:26:04.055Z,97.12
2018-12-04T03:28:31.783Z,96.92
2018-12-04T03:30:59.584Z,96.59
2018-12-04T03:33:36.910Z,96.69
2018-12-04T03:36:05.374Z,96.32
2018-12-04T03:38:33.219Z,96.61
2018-12-04T03:41:01.750Z,96.44
2018-12-04T03:43:29.531Z,96.38
2018-12-04T03:45:58.056Z,96.00
2018-12-04T03:48:26.476Z,96.23
2018-12-04T03:50:54.081Z,96.54
2018-12-04T03:53:21.862Z,96.87
2018-12-04T03:55:49.662Z,96.64
2018-12-04T03:58:17.466Z,96.94
2018-12-04T04:00:45.996Z,96.57
2018-12-04T04:03:13.784Z,97.00
2018-12-04T04:05:41.480Z,97.16
2018-12-04T04:08:09.267Z,96.64
2018-12-04T04:10:37.060Z,96.57
2018-12-04T04:13:04.857Z,95.51
2018-12-04T04:15:32.652Z,95.40
2018-12-04T04:18:00.284Z,94.21
2018-12-04T04:20:27.900Z,94.05
2018-12-04T04:22:55.524Z,93.82
2018-12-04T04:25:23.145Z,93.80
2018-12-04T04:27:50.799Z,93.47
2018-12-04T04:30:18.423Z,93.52
2018-12-04T04:32:46.189Z,93.33
2018-12-04T04:35:14.706Z,92.63
2018-12-04T04:37:42.581Z,92.71
2018-12-04T04:40:10.250Z,92.62
2018-12-04T04:42:37.953Z,92.67
2018-12-04T04:45:06.010Z,92.87
2018-12-04T04:47:33.653Z,93.24
2018-12-04T04:50:01.302Z,92.78
2018-12-04T04:52:28.940Z,92.00
2018-12-04T04:54:56.735Z,91.33
2018-12-04T04:57:24.636Z,90.85
2018-12-04T04:59:53.347Z,91.13
2018-12-04T05:02:20.968Z,91.08
2018-12-04T05:04:48.722Z,90.20
2018-12-04T05:07:16.349Z,90.40
2018-12-04T05:09:44.813Z,90.24
2018-12-04T05:12:12.636Z,89.37
2018-12-04T05:14:40.333Z,89.42
2018-12-04T05:17:08.110Z,89.81
2018-12-04T05:19:35.734Z,89.26
2018-12-04T05:22:04.322Z,88.90
2018-12-04T05:24:32.013Z,88.79
2018-12-04T05:26:59.714Z,88.40
2018-12-04T05:29:27.507Z,88.95
2018-12-04T05:31:56.241Z,88.46
2018-12-04T05:34:24.067Z,87.63
2018-12-04T05:36:52.651Z,88.14
2018-12-04T05:39:20.331Z,87.65
2018-12-04T05:41:48.132Z,88.05
2018-12-04T05:44:15.921Z,88.23
2018-12-04T05:46:43.546Z,87.73
2018-12-04T05:49:11.168Z,88.04
2018-12-04T05:51:38.892Z,87.71
2018-12-04T05:54:10.512Z,88.19
2018-12-04T05:56:39.192Z,87.97
2018-12-04T05:59:07.915Z,87.60
2018-12-04T06:01:35.531Z,88.06
2018-12-04T06:04:03.212Z,87.67
2018-12-04T06:06:30.883Z,87.71
2018-12-04T06:08:58.685Z,87.49
2018-12-04T06:11:26.485Z,87.57
2018-12-04T06:13:54.280Z,87.83
2018-12-04T06:16:21.898Z,87.51
2018-12-04T06:18:49.527Z,87.37
2018-12-04T06:21:17.339Z,87.06
2018-12-04T06:23:45.870Z,87.17
2018-12-04T06:26:13.572Z,87.49
2018-12-04T06:28:41.356Z,86.83
2018-12-04T06:31:08.991Z,86.71
2018-12-04T06:33:36.667Z,87.20
2018-12-04T06:36:04.283Z,86.84
2018-12-04T06:38:32.720Z,87.19
2018-12-04T06:41:01.322Z,86.59
2018-12-04T06:43:30.004Z,86.04
2018-12-04T06:45:57.626Z,86.29
2018-12-04T06:48:26.101Z,86.05
2018-12-04T06:50:54.540Z,85.74
2018-12-04T06:53:22.174Z,85.43
2018-12-04T06:55:50.623Z,84.56
2018-12-04T06:58:18.246Z,83.71
2018-12-04T07:00:45.931Z,84.08
2018-12-04T07:03:15.628Z,83.67
2018-12-04T07:05:43.828Z,83.65
2018-12-04T07:08:11.444Z,84.00
2018-12-04T07:10:39.108Z,84.76
2018-12-04T07:13:06.743Z,84.76
2018-12-04T07:15:34.507Z,84.61
2018-12-04T07:18:02.938Z,84.48
2018-12-04T07:20:30.606Z,83.79
2018-12-04T07:22:58.265Z,83.76
2018-12-04T07:25:25.881Z,83.78
2018-12-04T07:27:54.336Z,83.13
2018-12-04T07:30:23.065Z,83.28
2018-12-04T07:32:51.556Z,83.27
2018-12-04T07:35:20.105Z,83.57
2018-12-04T07:37:47.719Z,84.09
2018-12-04T07:40:16.281Z,84.23
2018-12-04T07:42:44.810Z,83.55
2018-12-04T07:45:13.929Z,82.96
2018-12-04T07:47:42.648Z,83.44
2018-12-04T07:50:10.276Z,83.38
2018-12-04T07:52:38.705Z,83.10
2018-12-04T07:55:06.435Z,82.98
2018-12-04T07:57:34.847Z,83.35
2018-12-04T08:00:04.881Z,83.80
2018-12-04T08:02:33.489Z,83.67
2018-12-04T08:05:02.050Z,83.58
2018-12-04T08:07:30.492Z,83.78
2018-12-04T08:09:58.965Z,84.44
2018-12-04T08:12:26.586Z,83.70
2018-12-04T08:14:54.272Z,83.27
2018-12-04T08:17:21.904Z,82.52
2018-12-04T08:19:50.306Z,82.68
2018-12-04T08:22:17.945Z,82.93
2018-12-04T08:24:46.426Z,83.00
2018-12-04T08:27:14.963Z,82.64
2018-12-04T08:29:43.693Z,82.62
2018-12-04T08:32:11.359Z,82.31
2018-12-04T08:34:39.782Z,82.04
2018-12-04T08:37:08.394Z,81.74
2018-12-04T08:39:36.844Z,81.57
2018-12-04T08:42:05.309Z,81.58
2018-12-04T08:44:33.976Z,80.95
2018-12-04T08:47:01.604Z,80.83
2018-12-04T08:49:29.251Z,81.12
2018-12-04T08:51:56.876Z,80.87
2018-12-04T08:54:24.507Z,82.60
2018-12-04T08:56:52.374Z,81.10
2018-12-04T08:59:20.111Z,81.23
2018-12-04T09:01:47.798Z,81.42
2018-12-04T09:04:15.445Z,81.19
2018-12-04T09:06:44.105Z,81.64
2018-12-04T09:09:13.410Z,81.03
2018-12-04T09:11:41.042Z,80.77
2018-12-04T09:14:08.852Z,80.10
2018-12-04T09:16:37.260Z,79.91
2018-12-04T09:19:04.916Z,80.31
2018-12-04T09:21:32.678Z,80.78
2018-12-04T09:24:00.367Z,81.86
2018-12-04T09:26:28.836Z,81.92
2018-12-04T09:28:56.805Z,81.89
2018-12-04T09:31:24.518Z,82.54
2018-12-04T09:33:53.079Z,82.88
2018-12-04T09:36:21.560Z,82.29
2018-12-04T09:38:49.344Z,82.28
2018-12-04T09:41:17.864Z,82.18
2018-12-04T09:43:45.712Z,81.89
2018-12-04T09:46:13.895Z,82.17
2018-12-04T09:48:41.523Z,80.83
2018-12-04T09:51:09.313Z,80.78
2018-12-04T09:53:36.941Z,81.15
2018-12-04T09:56:04.721Z,80.70
2018-12-04T09:58:32.513Z,79.81
2018-12-04T10:01:00.315Z,79.44
2018-12-04T10:03:28.059Z,79.46
2018-12-04T10:05:55.849Z,79.98
2018-12-04T10:08:24.654Z,79.59
2018-12-04T10:10:52.645Z,79.17
2018-12-04T10:13:21.074Z,78.45
2018-12-04T10:15:48.851Z,77.92
2018-12-04T10:18:16.787Z,78.17
2018-12-04T10:20:45.367Z,78.41
2018-12-04T10:23:13.189Z,77.43
2018-12-04T10:25:43.755Z,78.12
2018-12-04T10:28:11.490Z,76.44
2018-12-04T10:30:42.461Z,76.35
2018-12-04T10:33:10.182Z,76.31
2018-12-04T10:35:38.627Z,74.30
2018-12-04T10:38:07.221Z,74.55
2018-12-04T10:40:35.957Z,75.04
2018-12-04T10:43:03.873Z,74.41
2018-12-04T10:45:31.615Z,75.11
2018-12-04T10:48:00.442Z,74.27
2018-12-04T10:50:28.247Z,74.80
2018-12-04T10:52:56.042Z,74.65
2018-12-04T10:55:23.949Z,74.22
2018-12-04T10:57:51.609Z,73.46
2018-12-04T11:00:24.884Z,73.42
2018-12-04T11:02:54.487Z,73.86
2018-12-04T11:05:22.121Z,73.53
2018-12-04T11:07:49.739Z,73.50
2018-12-04T11:10:17.503Z,73.74
2018-12-04T11:12:45.189Z,72.92
2018-12-04T11:15:13.727Z,73.17
2018-12-04T11:17:41.391Z,73.33
2018-12-04T11:20:10.291Z,73.73
2018-12-04T11:22:37.947Z,73.74
2018-12-04T11:25:07.377Z,73.50
2018-12-04T11:27:35.837Z,73.80
2018-12-04T11:30:06.366Z,70.61
2018-12-04T11:32:33.979Z,72.41
2018-12-04T11:35:01.802Z,72.51
2018-12-04T11:37:29.603Z,72.72
2018-12-04T11:39:57.316Z,71.68
2018-12-04T11:42:25.106Z,71.35
2018-12-04T11:44:53.552Z,71.30
2018-12-04T11:47:21.213Z,71.19
2018-12-04T11:49:49.005Z,70.97
2018-12-04T11:52:16.815Z,71.09
2018-12-04T11:54:46.080Z,71.42
2018-12-04T11:57:14.147Z,71.29
2018-12-04T11:59:43.338Z,71.19
2018-12-04T12:02:11.096Z,69.78
2018-12-04T12:04:39.624Z,69.32
2018-12-04T12:07:08.218Z,68.83
2018-12-04T12:09:35.863Z,68.31
2018-12-04T12:12:03.613Z,68.66
2018-12-04T12:14:31.251Z,69.46
2018-12-04T12:16:59.021Z,69.21
2018-12-04T12:19:27.590Z,68.68
2018-12-04T12:21:55.270Z,68.32
2018-12-04T12:24:22.901Z,67.87
2018-12-04T12:26:50.526Z,68.09
2018-12-04T12:29:18.198Z,67.37
2018-12-04T12:31:45.826Z,67.43
2018-12-04T12:34:15.467Z,69.11
2018-12-04T12:36:43.444Z,67.76
2018-12-04T12:39:11.947Z,66.90
2018-12-04T12:41:40.587Z,68.56
2018-12-04T12:44:09.058Z,68.50
2018-12-04T12:46:37.506Z,68.46
2018-12-04T12:49:05.252Z,68.49
2018-12-04T12:51:33.057Z,68.02
2018-12-04T12:54:00.755Z,67.78
2018-12-04T12:56:28.609Z,67.37
2018-12-04T12:58:56.439Z,67.02
2018-12-04T13:01:24.056Z,67.02
2018-12-04T13:03:51.791Z,67.20
2018-12-04T13:06:19.415Z,66.56
2018-12-04T13:08:47.061Z,67.81
2018-12-04T13:11:16.009Z,67.41
2018-12-04T13:13:44.716Z,66.78
2018-12-04T13:16:12.513Z,67.66
2018-12-04T13:18:40.160Z,67.60
2018-12-04T13:21:07.786Z,67.42
2018-12-04T13:23:35.456Z,67.49
2018-12-04T13:26:03.094Z,66.59
2018-12-04T13:28:30.903Z,67.80
2018-12-04T13:30:59.562Z,67.43
2018-12-04T13:33:28.179Z,67.06
2018-12-04T13:35:56.696Z,67.85
2018-12-04T13:38:25.123Z,68.14
2018-12-04T13:40:53.872Z,66.94
2018-12-04T13:43:21.503Z,66.67
2018-12-04T13:45:49.124Z,65.38
2018-12-04T13:48:16.793Z,65.33
2018-12-04T13:50:45.356Z,65.50
2018-12-04T13:53:15.096Z,66.18
2018-12-04T13:55:43.725Z,68.70
2018-12-04T13:58:12.650Z,75.09
2018-12-04T14:00:41.154Z,77.66
2018-12-04T14:03:09.730Z,78.89
2018-12-04T14:05:38.267Z,79.33
2018-12-04T14:08:07.814Z,79.17
2018-12-04T14:10:36.526Z,79.38
2018-12-04T14:13:05.239Z,79.16
2018-12-04T14:15:34.171Z,80.00
2018-12-04T14:18:01.951Z,80.49
2018-12-04T14:20:30.567Z,80.18
2018-12-04T14:22:58.200Z,79.93
2018-12-04T14:25:26.822Z,79.59
2018-12-04T14:27:55.389Z,78.49
2018-12-04T14:30:23.903Z,79.22
2018-12-04T14:32:52.454Z,78.05
2018-12-04T14:35:20.082Z,78.03
2018-12-04T14:37:48.568Z,77.60
2018-12-04T14:40:16.320Z,77.54
2018-12-04T14:42:44.889Z,77.32
2018-12-04T14:45:13.557Z,77.36
2018-12-04T14:47:41.229Z,78.06
2018-12-04T14:50:09.202Z,77.17
2018-12-04T14:52:36.967Z,76.65
2018-12-04T14:55:06.330Z,76.45
2018-12-04T14:57:34.930Z,75.92
2018-12-04T15:00:05.500Z,76.40
2018-12-04T15:02:33.184Z,75.58
2018-12-04T15:05:01.792Z,75.58
2018-12-04T15:07:30.303Z,75.47
2018-12-04T15:09:58.205Z,75.67
2018-12-04T15:12:26.019Z,75.05
2018-12-04T15:14:54.576Z,75.49
2018-12-04T15:17:22.212Z,76.03
2018-12-04T15:19:49.828Z,75.65
2018-12-04T15:22:17.469Z,75.69
2018-12-04T15:24:45.131Z,75.56
2018-12-04T15:27:13.509Z,75.41
2018-12-04T15:29:41.158Z,75.45
2018-12-04T15:32:08.988Z,74.74
2018-12-04T15:34:36.833Z,74.11
2018-12-04T15:37:04.719Z,74.14
2018-12-04T15:39:32.532Z,74.19
2018-12-04T15:42:00.349Z,73.90
2018-12-04T15:44:28.101Z,73.01
2018-12-04T15:46:55.941Z,73.03
2018-12-04T15:49:23.692Z,72.61
2018-12-04T15:51:51.478Z,72.54
2018-12-04T15:54:19.211Z,73.04
2018-12-04T15:56:46.844Z,73.79
2018-12-04T15:59:14.796Z,73.12
2018-12-04T16:01:42.428Z,72.42
2018-12-04T16:04:10.088Z,73.10
2018-12-04T16:06:37.726Z,73.13
2018-12-04T16:09:07.019Z,73.26
2018-12-04T16:11:34.649Z,73.33
2018-12-04T16:14:02.269Z,73.27
2018-12-04T16:16:30.978Z,74.05
2018-12-04T16:18:58.604Z,74.50
2018-12-04T16:21:26.242Z,75.42
2018-12-04T16:23:53.876Z,74.85
2018-12-04T16:26:21.573Z,75.11
2018-12-04T16:28:49.345Z,74.60
2018-12-04T16:31:17.142Z,74.87
2018-12-04T16:33:44.755Z,75.13
2018-12-04T16:36:12.475Z,74.68
2018-12-04T16:38:40.138Z,74.33
2018-12-04T16:41:08.589Z,75.08
2018-12-04T16:43:36.269Z,74.31
2018-12-04T16:46:04.052Z,74.62
2018-12-04T16:48:31.674Z,74.75
2018-12-04T16:51:00.107Z,74.75
2018-12-04T16:53:27.741Z,75.47
2018-12-04T16:55:56.301Z,75.39
2018-12-04T16:58:25.202Z,75.08
2018-12-04T17:00:53.991Z,75.38
2018-12-04T17:03:21.634Z,76.11
2018-12-04T17:05:49.263Z,76.30
2018-12-04T17:08:16.879Z,76.64
2018-12-04T17:10:45.921Z,76.87
2018-12-04T17:13:13.610Z,77.10
2018-12-04T17:15:41.373Z,76.64
2018-12-04T17:18:09.019Z,77.35
2018-12-04T17:20:36.636Z,76.65
2018-12-04T17:23:04.259Z,76.68
2018-12-04T17:25:32.668Z,76.00
2018-12-04T17:28:00.302Z,75.94
2018-12-04T17:30:28.309Z,76.15
2018-12-04T17:32:56.204Z,76.56
2018-12-04T17:35:23.830Z,76.59
2018-12-04T17:37:51.455Z,76.48
2018-12-04T17:40:20.061Z,76.95
2018-12-04T17:42:47.708Z,76.90
2018-12-04T17:45:16.114Z,77.17
2018-12-04T17:47:44.679Z,76.85
2018-12-04T17:50:12.558Z,76.51
2018-12-04T17:52:40.268Z,76.80
2018-12-04T17:55:08.027Z,77.56
2018-12-04T17:57:35.669Z,77.59
2018-12-04T18:00:09.816Z,77.87
2018-12-04T18:02:37.447Z,78.12
2018-12-04T18:05:05.211Z,78.17
2018-12-04T18:07:32.893Z,78.34
2018-12-04T18:10:00.520Z,78.42
2018-12-04T18:12:28.150Z,78.21
2018-12-04T18:15:03.673Z,78.02
2018-12-04T18:17:31.289Z,78.11
2018-12-04T18:20:00.023Z,77.97
2018-12-04T18:22:28.840Z,78.49
2018-12-04T18:24:58.375Z,78.83
2018-12-04T18:27:26.058Z,78.61
2018-12-04T18:29:53.859Z,79.01
2018-12-04T18:32:21.466Z,79.03
2018-12-04T18:34:49.137Z,79.43
2018-12-04T18:37:17.129Z,78.88
2018-12-04T18:39:44.785Z,79.01
2018-12-04T18:42:13.528Z,79.22
2018-12-04T18:44:41.226Z,79.45
2018-12-04T18:47:08.926Z,78.98
2018-12-04T18:49:37.484Z,80.18
2018-12-04T18:52:05.125Z,79.40
2018-12-04T18:54:32.924Z,80.18
2018-12-04T18:57:00.553Z,80.11
2018-12-04T18:59:28.336Z,80.78
2018-12-04T19:01:57.373Z,81.02
2018-12-04T19:04:25.215Z,80.68
2018-12-04T19:06:52.853Z,81.15
2018-12-04T19:09:20.473Z,80.85
2018-12-04T19:11:49.127Z,81.36
2018-12-04T19:14:16.764Z,81.48
2018-12-04T19:16:45.401Z,82.12
2018-12-04T19:19:13.829Z,82.38
2018-12-04T19:21:42.607Z,82.82
2018-12-04T19:24:10.285Z,82.68
2018-12-04T19:26:38.100Z,83.40
2018-12-04T19:29:05.877Z,83.02
2018-12-04T19:31:33.696Z,83.29
2018-12-04T19:34:01.307Z,83.48
2018-12-04T19:36:29.093Z,82.88
2018-12-04T19:38:56.912Z,82.96
2018-12-04T19:41:24.729Z,83.54
2018-12-04T19:43:56.441Z,83.69
2018-12-04T19:46:22.258Z,83.19
2018-12-04T19:48:49.960Z,83.41
2018-12-04T19:51:18.632Z,83.36
2018-12-04T19:53:47.044Z,84.06
2018-12-04T19:56:14.668Z,83.94
2018-12-04T19:58:42.440Z,84.58
2018-12-04T20:01:10.186Z,84.24
2018-12-04T20:03:37.859Z,84.05
2018-12-04T20:06:06.395Z,84.14
2018-12-04T20:13:37.070Z,84.96
2018-12-04T20:16:05.711Z,84.53
2018-12-04T20:18:33.325Z,85.13
2018-12-04T20:21:01.890Z,84.86
2018-12-04T20:23:30.540Z,85.09
2018-12-04T20:25:59.110Z,85.74
2018-12-04T20:28:26.724Z,86.09
2018-12-04T20:30:54.347Z,86.28
2018-12-04T20:33:22.053Z,86.29
2018-12-04T20:35:49.677Z,86.51
2018-12-04T20:38:17.310Z,85.76
2018-12-04T20:40:44.949Z,86.50
2018-12-04T20:43:13.584Z,86.56
2018-12-04T20:45:42.572Z,86.62
2018-12-04T20:48:10.276Z,87.23
2018-12-04T20:50:38.063Z,87.11
2018-12-04T20:53:06.514Z,86.81
2018-12-04T20:55:35.049Z,87.61
2018-12-04T20:58:02.837Z,88.03
2018-12-04T21:00:31.357Z,87.65
2018-12-04T21:02:58.977Z,87.69
2018-12-04T21:05:26.585Z,87.53
2018-12-04T21:07:54.269Z,87.54
2018-12-04T21:10:21.980Z,87.74
2018-12-04T21:12:50.396Z,87.67
2018-12-04T21:15:18.314Z,87.78
2018-12-04T21:17:45.992Z,88.03
2018-12-04T21:20:15.388Z,87.87
2018-12-04T21:22:43.136Z,88.22
2018-12-04T21:25:10.761Z,88.28
2018-12-04T21:27:44.061Z,87.94
2018-12-04T21:30:17.487Z,87.64
2018-12-04T21:32:50.842Z,88.01
2018-12-04T21:35:24.383Z,87.80
2018-12-04T21:37:57.769Z,88.61
2018-12-04T21:40:31.149Z,88.66
2018-12-04T21:43:04.481Z,89.01
2018-12-04T21:45:37.724Z,88.71
2018-12-04T21:48:06.368Z,88.50
2018-12-04T21:50:33.964Z,88.63
2018-12-04T21:53:01.621Z,89.00
2018-12-04T21:55:29.245Z,89.15
2018-12-04T21:57:57.774Z,88.97
2018-12-04T22:00:25.453Z,89.20
2018-12-04T22:02:53.108Z,89.70
2018-12-04T22:05:20.768Z,89.77
2018-12-04T22:07:48.492Z,89.55
2018-12-04T22:10:16.146Z,89.84
2018-12-04T22:12:43.868Z,90.29
2018-12-04T22:15:12.429Z,89.67
2018-12-04T22:17:40.989Z,89.61
2018-12-04T22:20:08.610Z,89.66
2018-12-04T22:22:37.246Z,89.59
2018-12-04T22:25:05.024Z,89.49
2018-12-04T22:27:32.648Z,89.74
2018-12-04T22:30:00.268Z,89.87
2018-12-04T22:32:27.884Z,89.75
2018-12-04T22:34:55.507Z,90.19
2018-12-04T22:37:23.122Z,90.18
2018-12-04T22:39:50.908Z,90.44
2018-12-04T22:42:18.519Z,90.68
2018-12-04T22:44:46.198Z,90.72
2018-12-04T22:47:14.651Z,90.70
2018-12-04T22:49:42.315Z,90.75
2018-12-04T22:52:09.929Z,90.80
2018-12-04T22:54:37.574Z,90.56
2018-12-04T22:57:05.310Z,90.96
2018-12-04T22:59:32.979Z,90.76
2018-12-04T23:02:00.661Z,91.00
2018-12-04T23:04:28.315Z,90.77
2018-12-04T23:06:56.844Z,90.61
2018-12-04T23:09:24.497Z,91.06
2018-12-04T23:11:52.235Z,91.07
2018-12-04T23:14:19.867Z,91.09
2018-12-04T23:16:47.521Z,91.26
2018-12-04T23:19:15.144Z,90.96
2018-12-04T23:21:43.573Z,91.14
2018-12-04T23:24:11.182Z,91.05
2018-12-04T23:26:38.833Z,90.88
2018-12-04T23:29:07.287Z,90.72
2018-12-04T23:31:35.841Z,91.21
2018-12-04T23:34:03.651Z,90.97
2018-12-04T23:36:32.334Z,91.06
2018-12-04T23:39:00.006Z,90.62
2018-12-04T23:41:27.656Z,90.72
2018-12-04T23:43:55.455Z,91.21
2018-12-04T23:46:23.972Z,91.25
2018-12-04T23:48:52.553Z,91.55
2018-12-04T23:51:21.284Z,91.19
2018-12-04T23:53:49.891Z,91.58
2018-12-04T23:56:18.455Z,91.84
2018-12-04T23:58:46.902Z,91.47
